sensor_id;sensor_type;location;lat;lon;timestamp;P1;durP1;ratioP1;P2;durP2;ratioP2
16288;SDS011;26089;43.538;5.250;2023-04-08T00:00:30;1.50;;;1.40;;
16288;SDS011;26089;43.538;5.250;2023-04-08T00:02:57;3.37;;;1.40;;
16288;SDS011;26089;43.538;5.250;2023-04-08T00:05:24;1.70;;;1.60;;
16288;SDS011;26089;43.538;5.250;2023-04-08T00:07:51;3.57;;;1.43;;
16288;SDS011;26089;43.538;5.250;2023-04-08T00:10:18;2.53;;;1.70;;
16288;SDS011;26089;43.538;5.250;2023-04-08T00:12:47;3.13;;;2.20;;
16288;SDS011;26089;43.538;5.250;2023-04-08T00:15:14;3.93;;;3.00;;
16288;SDS011;26089;43.538;5.250;2023-04-08T00:17:41;12.63;;;5.90;;
16288;SDS011;26089;43.538;5.250;2023-04-08T00:20:09;8.57;;;4.70;;
16288;SDS011;26089;43.538;5.250;2023-04-08T00:22:36;8.33;;;4.13;;
16288;SDS011;26089;43.538;5.250;2023-04-08T00:25:04;7.30;;;4.07;;
16288;SDS011;26089;43.538;5.250;2023-04-08T00:27:33;8.77;;;4.33;;
16288;SDS011;26089;43.538;5.250;2023-04-08T00:30:02;8.90;;;3.70;;
16288;SDS011;26089;43.538;5.250;2023-04-08T00:32:30;6.87;;;3.60;;
16288;SDS011;26089;43.538;5.250;2023-04-08T00:34:57;7.70;;;3.77;;
16288;SDS011;26089;43.538;5.250;2023-04-08T00:37:24;6.37;;;2.90;;
16288;SDS011;26089;43.538;5.250;2023-04-08T00:39:51;4.37;;;2.70;;
16288;SDS011;26089;43.538;5.250;2023-04-08T00:42:18;7.90;;;3.80;;
16288;SDS011;26089;43.538;5.250;2023-04-08T00:44:46;4.07;;;2.37;;
16288;SDS011;26089;43.538;5.250;2023-04-08T00:47:14;2.50;;;2.30;;
16288;SDS011;26089;43.538;5.250;2023-04-08T00:49:41;3.73;;;2.40;;
16288;SDS011;26089;43.538;5.250;2023-04-08T00:52:09;3.70;;;2.27;;
16288;SDS011;26089;43.538;5.250;2023-04-08T00:54:36;1.70;;;1.60;;
16288;SDS011;26089;43.538;5.250;2023-04-08T00:57:03;1.50;;;1.40;;
16288;SDS011;26089;43.538;5.250;2023-04-08T00:59:30;1.70;;;1.60;;
16288;SDS011;26089;43.538;5.250;2023-04-08T01:02:02;2.37;;;1.70;;
16288;SDS011;26089;43.538;5.250;2023-04-08T01:04:39;2.40;;;1.93;;
16288;SDS011;26089;43.538;5.250;2023-04-08T01:07:14;1.90;;;1.60;;
16288;SDS011;26089;43.538;5.250;2023-04-08T01:09:44;3.37;;;2.27;;
16288;SDS011;26089;43.538;5.250;2023-04-08T01:12:16;1.60;;;1.50;;
16288;SDS011;26089;43.538;5.250;2023-04-08T01:14:46;1.80;;;1.20;;
16288;SDS011;26089;43.538;5.250;2023-04-08T01:17:15;1.60;;;1.33;;
16288;SDS011;26089;43.538;5.250;2023-04-08T01:19:46;1.00;;;1.00;;
16288;SDS011;26089;43.538;5.250;2023-04-08T01:22:17;1.50;;;1.40;;
16288;SDS011;26089;43.538;5.250;2023-04-08T01:24:50;2.67;;;1.60;;
16288;SDS011;26089;43.538;5.250;2023-04-08T01:27:27;1.50;;;1.40;;
16288;SDS011;26089;43.538;5.250;2023-04-08T01:29:57;1.57;;;1.50;;
16288;SDS011;26089;43.538;5.250;2023-04-08T01:32:24;1.70;;;1.60;;
16288;SDS011;26089;43.538;5.250;2023-04-08T01:34:52;1.50;;;1.30;;
16288;SDS011;26089;43.538;5.250;2023-04-08T01:37:20;1.70;;;1.60;;
16288;SDS011;26089;43.538;5.250;2023-04-08T01:39:48;1.43;;;1.33;;
16288;SDS011;26089;43.538;5.250;2023-04-08T01:42:17;2.13;;;1.57;;
16288;SDS011;26089;43.538;5.250;2023-04-08T01:44:45;1.67;;;1.43;;
16288;SDS011;26089;43.538;5.250;2023-04-08T01:47:13;2.40;;;1.70;;
16288;SDS011;26089;43.538;5.250;2023-04-08T01:49:41;1.33;;;1.27;;
16288;SDS011;26089;43.538;5.250;2023-04-08T01:52:08;3.67;;;1.60;;
16288;SDS011;26089;43.538;5.250;2023-04-08T01:54:36;1.60;;;1.50;;
16288;SDS011;26089;43.538;5.250;2023-04-08T01:57:04;1.73;;;1.63;;
16288;SDS011;26089;43.538;5.250;2023-04-08T01:59:33;1.50;;;1.40;;
16288;SDS011;26089;43.538;5.250;2023-04-08T02:02:05;4.03;;;1.40;;
16288;SDS011;26089;43.538;5.250;2023-04-08T02:04:35;1.60;;;1.57;;
16288;SDS011;26089;43.538;5.250;2023-04-08T02:07:02;2.23;;;1.80;;
16288;SDS011;26089;43.538;5.250;2023-04-08T02:09:30;1.50;;;1.40;;
16288;SDS011;26089;43.538;5.250;2023-04-08T02:11:58;1.70;;;1.60;;
16288;SDS011;26089;43.538;5.250;2023-04-08T02:14:25;2.03;;;1.40;;
16288;SDS011;26089;43.538;5.250;2023-04-08T02:16:54;1.70;;;1.60;;
16288;SDS011;26089;43.538;5.250;2023-04-08T02:19:28;1.97;;;1.43;;
16288;SDS011;26089;43.538;5.250;2023-04-08T02:22:01;2.00;;;1.70;;
16288;SDS011;26089;43.538;5.250;2023-04-08T02:24:34;1.47;;;1.37;;
16288;SDS011;26089;43.538;5.250;2023-04-08T02:27:03;2.07;;;1.30;;
16288;SDS011;26089;43.538;5.250;2023-04-08T02:29:31;1.70;;;1.60;;
16288;SDS011;26089;43.538;5.250;2023-04-08T02:31:59;2.40;;;1.37;;
16288;SDS011;26089;43.538;5.250;2023-04-08T02:34:28;2.23;;;1.50;;
16288;SDS011;26089;43.538;5.250;2023-04-08T02:36:56;1.50;;;1.40;;
16288;SDS011;26089;43.538;5.250;2023-04-08T02:39:29;1.67;;;1.50;;
16288;SDS011;26089;43.538;5.250;2023-04-08T02:41:57;2.03;;;1.70;;
16288;SDS011;26089;43.538;5.250;2023-04-08T02:44:24;1.90;;;1.63;;
16288;SDS011;26089;43.538;5.250;2023-04-08T02:46:51;2.00;;;1.70;;
16288;SDS011;26089;43.538;5.250;2023-04-08T02:49:17;1.63;;;1.43;;
16288;SDS011;26089;43.538;5.250;2023-04-08T02:51:46;2.30;;;1.60;;
16288;SDS011;26089;43.538;5.250;2023-04-08T02:54:13;4.33;;;1.80;;
16288;SDS011;26089;43.538;5.250;2023-04-08T02:56:40;1.63;;;1.60;;
16288;SDS011;26089;43.538;5.250;2023-04-08T02:59:07;1.87;;;1.70;;
16288;SDS011;26089;43.538;5.250;2023-04-08T03:01:34;1.70;;;1.60;;
16288;SDS011;26089;43.538;5.250;2023-04-08T03:04:00;1.90;;;1.80;;
16288;SDS011;26089;43.538;5.250;2023-04-08T03:06:27;2.00;;;1.80;;
16288;SDS011;26089;43.538;5.250;2023-04-08T03:08:57;1.70;;;1.60;;
16288;SDS011;26089;43.538;5.250;2023-04-08T03:11:23;1.80;;;1.70;;
16288;SDS011;26089;43.538;5.250;2023-04-08T03:13:51;1.43;;;1.43;;
16288;SDS011;26089;43.538;5.250;2023-04-08T03:16:18;1.73;;;1.63;;
16288;SDS011;26089;43.538;5.250;2023-04-08T03:18:45;1.67;;;1.60;;
16288;SDS011;26089;43.538;5.250;2023-04-08T03:21:12;1.80;;;1.70;;
16288;SDS011;26089;43.538;5.250;2023-04-08T03:23:39;1.80;;;1.70;;
16288;SDS011;26089;43.538;5.250;2023-04-08T03:26:07;2.90;;;1.97;;
16288;SDS011;26089;43.538;5.250;2023-04-08T03:28:34;2.60;;;1.77;;
16288;SDS011;26089;43.538;5.250;2023-04-08T03:31:01;2.00;;;1.67;;
16288;SDS011;26089;43.538;5.250;2023-04-08T03:33:29;1.80;;;1.70;;
16288;SDS011;26089;43.538;5.250;2023-04-08T03:35:56;2.00;;;1.80;;
16288;SDS011;26089;43.538;5.250;2023-04-08T03:38:22;1.67;;;1.57;;
16288;SDS011;26089;43.538;5.250;2023-04-08T03:40:50;1.93;;;1.73;;
16288;SDS011;26089;43.538;5.250;2023-04-08T03:43:18;2.00;;;1.73;;
16288;SDS011;26089;43.538;5.250;2023-04-08T03:45:46;2.40;;;1.80;;
16288;SDS011;26089;43.538;5.250;2023-04-08T03:48:13;1.87;;;1.80;;
16288;SDS011;26089;43.538;5.250;2023-04-08T03:50:39;2.30;;;1.93;;
16288;SDS011;26089;43.538;5.250;2023-04-08T03:53:06;2.90;;;2.10;;
16288;SDS011;26089;43.538;5.250;2023-04-08T03:55:35;3.07;;;2.17;;
16288;SDS011;26089;43.538;5.250;2023-04-08T03:58:03;1.83;;;1.67;;
16288;SDS011;26089;43.538;5.250;2023-04-08T04:00:32;2.47;;;1.53;;
16288;SDS011;26089;43.538;5.250;2023-04-08T04:03:00;2.60;;;2.03;;
16288;SDS011;26089;43.538;5.250;2023-04-08T04:05:27;1.80;;;1.70;;
16288;SDS011;26089;43.538;5.250;2023-04-08T04:07:54;2.73;;;2.07;;
16288;SDS011;26089;43.538;5.250;2023-04-08T04:10:22;2.43;;;2.03;;
16288;SDS011;26089;43.538;5.250;2023-04-08T04:12:49;2.03;;;1.93;;
16288;SDS011;26089;43.538;5.250;2023-04-08T04:15:16;2.10;;;1.90;;
16288;SDS011;26089;43.538;5.250;2023-04-08T04:17:46;2.73;;;2.03;;
16288;SDS011;26089;43.538;5.250;2023-04-08T04:20:14;3.17;;;2.10;;
16288;SDS011;26089;43.538;5.250;2023-04-08T04:22:41;2.30;;;2.20;;
16288;SDS011;26089;43.538;5.250;2023-04-08T04:25:08;2.17;;;1.93;;
16288;SDS011;26089;43.538;5.250;2023-04-08T04:27:35;2.30;;;2.20;;
16288;SDS011;26089;43.538;5.250;2023-04-08T04:30:03;2.20;;;2.00;;
16288;SDS011;26089;43.538;5.250;2023-04-08T04:32:31;2.17;;;2.07;;
16288;SDS011;26089;43.538;5.250;2023-04-08T04:34:59;2.23;;;2.03;;
16288;SDS011;26089;43.538;5.250;2023-04-08T04:37:26;2.40;;;1.90;;
16288;SDS011;26089;43.538;5.250;2023-04-08T04:39:53;2.93;;;2.23;;
16288;SDS011;26089;43.538;5.250;2023-04-08T04:42:20;2.23;;;2.00;;
16288;SDS011;26089;43.538;5.250;2023-04-08T04:44:47;2.50;;;2.30;;
16288;SDS011;26089;43.538;5.250;2023-04-08T04:47:14;2.67;;;2.20;;
16288;SDS011;26089;43.538;5.250;2023-04-08T04:49:41;3.43;;;2.37;;
16288;SDS011;26089;43.538;5.250;2023-04-08T04:52:11;1.83;;;1.73;;
16288;SDS011;26089;43.538;5.250;2023-04-08T04:54:38;1.70;;;1.60;;
16288;SDS011;26089;43.538;5.250;2023-04-08T04:57:05;2.53;;;2.03;;
16288;SDS011;26089;43.538;5.250;2023-04-08T04:59:32;2.00;;;1.90;;
16288;SDS011;26089;43.538;5.250;2023-04-08T05:01:58;4.30;;;2.40;;
16288;SDS011;26089;43.538;5.250;2023-04-08T05:04:25;3.00;;;2.20;;
16288;SDS011;26089;43.538;5.250;2023-04-08T05:06:52;2.30;;;2.10;;
16288;SDS011;26089;43.538;5.250;2023-04-08T05:09:21;3.63;;;1.80;;
16288;SDS011;26089;43.538;5.250;2023-04-08T05:11:48;1.90;;;1.80;;
16288;SDS011;26089;43.538;5.250;2023-04-08T05:14:15;2.47;;;2.27;;
16288;SDS011;26089;43.538;5.250;2023-04-08T05:16:42;2.30;;;2.10;;
16288;SDS011;26089;43.538;5.250;2023-04-08T05:19:09;2.20;;;1.93;;
16288;SDS011;26089;43.538;5.250;2023-04-08T05:21:36;4.23;;;2.10;;
16288;SDS011;26089;43.538;5.250;2023-04-08T05:24:03;2.10;;;1.97;;
16288;SDS011;26089;43.538;5.250;2023-04-08T05:26:31;2.10;;;1.80;;
16288;SDS011;26089;43.538;5.250;2023-04-08T05:28:58;1.90;;;1.80;;
16288;SDS011;26089;43.538;5.250;2023-04-08T05:31:25;2.20;;;2.00;;
16288;SDS011;26089;43.538;5.250;2023-04-08T05:33:52;2.53;;;2.20;;
16288;SDS011;26089;43.538;5.250;2023-04-08T05:36:19;4.43;;;2.20;;
16288;SDS011;26089;43.538;5.250;2023-04-08T05:38:46;2.67;;;2.40;;
16288;SDS011;26089;43.538;5.250;2023-04-08T05:41:13;2.60;;;2.33;;
16288;SDS011;26089;43.538;5.250;2023-04-08T05:43:42;5.10;;;2.60;;
16288;SDS011;26089;43.538;5.250;2023-04-08T05:46:09;2.40;;;2.20;;
16288;SDS011;26089;43.538;5.250;2023-04-08T05:48:36;2.80;;;2.33;;
16288;SDS011;26089;43.538;5.250;2023-04-08T05:51:03;3.03;;;2.83;;
16288;SDS011;26089;43.538;5.250;2023-04-08T05:53:30;2.77;;;2.57;;
16288;SDS011;26089;43.538;5.250;2023-04-08T05:55:57;2.40;;;2.20;;
16288;SDS011;26089;43.538;5.250;2023-04-08T05:58:24;3.20;;;2.20;;
16288;SDS011;26089;43.538;5.250;2023-04-08T06:00:52;3.53;;;2.90;;
16288;SDS011;26089;43.538;5.250;2023-04-08T06:03:20;5.80;;;3.60;;
16288;SDS011;26089;43.538;5.250;2023-04-08T06:05:47;10.57;;;6.13;;
16288;SDS011;26089;43.538;5.250;2023-04-08T06:08:14;14.97;;;9.07;;
16288;SDS011;26089;43.538;5.250;2023-04-08T06:10:47;24.13;;;12.53;;
16288;SDS011;26089;43.538;5.250;2023-04-08T06:13:14;28.23;;;13.87;;
16288;SDS011;26089;43.538;5.250;2023-04-08T06:15:41;44.40;;;21.03;;
16288;SDS011;26089;43.538;5.250;2023-04-08T06:18:09;45.17;;;22.20;;
16288;SDS011;26089;43.538;5.250;2023-04-08T06:20:36;49.63;;;23.07;;
16288;SDS011;26089;43.538;5.250;2023-04-08T06:23:03;33.07;;;17.33;;
16288;SDS011;26089;43.538;5.250;2023-04-08T06:25:31;26.47;;;14.30;;
16288;SDS011;26089;43.538;5.250;2023-04-08T06:27:58;17.53;;;9.50;;
16288;SDS011;26089;43.538;5.250;2023-04-08T06:30:25;20.23;;;10.53;;
16288;SDS011;26089;43.538;5.250;2023-04-08T06:32:52;22.47;;;10.77;;
16288;SDS011;26089;43.538;5.250;2023-04-08T06:35:20;20.93;;;8.50;;
16288;SDS011;26089;43.538;5.250;2023-04-08T06:37:47;11.50;;;6.73;;
16288;SDS011;26089;43.538;5.250;2023-04-08T06:40:14;7.73;;;5.17;;
16288;SDS011;26089;43.538;5.250;2023-04-08T06:42:41;6.57;;;3.70;;
16288;SDS011;26089;43.538;5.250;2023-04-08T06:45:09;4.10;;;3.67;;
16288;SDS011;26089;43.538;5.250;2023-04-08T06:47:36;4.47;;;2.93;;
16288;SDS011;26089;43.538;5.250;2023-04-08T06:50:03;3.60;;;2.50;;
16288;SDS011;26089;43.538;5.250;2023-04-08T06:52:32;2.07;;;1.80;;
16288;SDS011;26089;43.538;5.250;2023-04-08T06:54:59;1.83;;;1.73;;
16288;SDS011;26089;43.538;5.250;2023-04-08T06:57:26;3.47;;;2.50;;
16288;SDS011;26089;43.538;5.250;2023-04-08T06:59:53;3.53;;;2.20;;
16288;SDS011;26089;43.538;5.250;2023-04-08T07:02:20;2.60;;;2.30;;
16288;SDS011;26089;43.538;5.250;2023-04-08T07:04:47;1.73;;;1.63;;
16288;SDS011;26089;43.538;5.250;2023-04-08T07:07:14;2.13;;;1.60;;
16288;SDS011;26089;43.538;5.250;2023-04-08T07:09:43;3.73;;;1.50;;
16288;SDS011;26089;43.538;5.250;2023-04-08T07:12:10;3.00;;;1.60;;
16288;SDS011;26089;43.538;5.250;2023-04-08T07:14:37;3.53;;;1.97;;
16288;SDS011;26089;43.538;5.250;2023-04-08T07:17:04;2.20;;;1.93;;
16288;SDS011;26089;43.538;5.250;2023-04-08T07:19:31;3.80;;;2.20;;
16288;SDS011;26089;43.538;5.250;2023-04-08T07:21:58;3.70;;;2.00;;
16288;SDS011;26089;43.538;5.250;2023-04-08T07:24:25;1.77;;;1.50;;
16288;SDS011;26089;43.538;5.250;2023-04-08T07:26:53;2.50;;;1.93;;
16288;SDS011;26089;43.538;5.250;2023-04-08T07:29:21;2.27;;;1.30;;
16288;SDS011;26089;43.538;5.250;2023-04-08T07:31:48;2.47;;;1.27;;
16288;SDS011;26089;43.538;5.250;2023-04-08T07:34:15;2.57;;;2.07;;
16288;SDS011;26089;43.538;5.250;2023-04-08T07:36:42;3.23;;;1.90;;
16288;SDS011;26089;43.538;5.250;2023-04-08T07:39:09;1.50;;;1.40;;
16288;SDS011;26089;43.538;5.250;2023-04-08T07:41:36;1.57;;;1.20;;
16288;SDS011;26089;43.538;5.250;2023-04-08T07:44:05;1.87;;;1.50;;
16288;SDS011;26089;43.538;5.250;2023-04-08T07:46:35;2.50;;;1.90;;
16288;SDS011;26089;43.538;5.250;2023-04-08T07:49:02;2.33;;;1.67;;
16288;SDS011;26089;43.538;5.250;2023-04-08T07:51:29;2.50;;;1.80;;
16288;SDS011;26089;43.538;5.250;2023-04-08T07:53:56;2.73;;;1.73;;
16288;SDS011;26089;43.538;5.250;2023-04-08T07:56:23;3.83;;;1.90;;
16288;SDS011;26089;43.538;5.250;2023-04-08T07:58:51;3.67;;;2.50;;
16288;SDS011;26089;43.538;5.250;2023-04-08T08:01:20;3.90;;;2.33;;
16288;SDS011;26089;43.538;5.250;2023-04-08T08:03:48;4.50;;;2.53;;
16288;SDS011;26089;43.538;5.250;2023-04-08T08:06:16;2.73;;;2.20;;
16288;SDS011;26089;43.538;5.250;2023-04-08T08:08:43;1.97;;;1.80;;
16288;SDS011;26089;43.538;5.250;2023-04-08T08:11:11;3.63;;;2.43;;
16288;SDS011;26089;43.538;5.250;2023-04-08T08:13:38;3.10;;;2.10;;
16288;SDS011;26089;43.538;5.250;2023-04-08T08:16:04;2.90;;;2.13;;
16288;SDS011;26089;43.538;5.250;2023-04-08T08:18:36;4.27;;;2.67;;
16288;SDS011;26089;43.538;5.250;2023-04-08T08:21:04;2.70;;;2.03;;
16288;SDS011;26089;43.538;5.250;2023-04-08T08:23:31;2.17;;;1.97;;
16288;SDS011;26089;43.538;5.250;2023-04-08T08:25:58;2.07;;;1.80;;
16288;SDS011;26089;43.538;5.250;2023-04-08T08:28:26;2.53;;;2.20;;
16288;SDS011;26089;43.538;5.250;2023-04-08T08:30:53;3.37;;;1.90;;
16288;SDS011;26089;43.538;5.250;2023-04-08T08:33:20;2.47;;;1.63;;
16288;SDS011;26089;43.538;5.250;2023-04-08T08:35:48;1.50;;;1.40;;
16288;SDS011;26089;43.538;5.250;2023-04-08T08:38:15;1.97;;;1.70;;
16288;SDS011;26089;43.538;5.250;2023-04-08T08:40:43;1.40;;;1.30;;
16288;SDS011;26089;43.538;5.250;2023-04-08T08:43:10;1.83;;;1.50;;
16288;SDS011;26089;43.538;5.250;2023-04-08T08:45:38;1.60;;;1.50;;
16288;SDS011;26089;43.538;5.250;2023-04-08T08:48:06;3.13;;;1.60;;
16288;SDS011;26089;43.538;5.250;2023-04-08T08:50:33;1.40;;;1.30;;
16288;SDS011;26089;43.538;5.250;2023-04-08T08:53:02;1.50;;;1.40;;
16288;SDS011;26089;43.538;5.250;2023-04-08T08:55:29;2.20;;;1.40;;
16288;SDS011;26089;43.538;5.250;2023-04-08T08:57:57;1.23;;;1.10;;
16288;SDS011;26089;43.538;5.250;2023-04-08T09:00:31;0.90;;;0.90;;
16288;SDS011;26089;43.538;5.250;2023-04-08T09:05:51;2.47;;;1.20;;
16288;SDS011;26089;43.538;5.250;2023-04-08T09:08:24;1.10;;;1.00;;
16288;SDS011;26089;43.538;5.250;2023-04-08T09:10:52;2.67;;;1.00;;
16288;SDS011;26089;43.538;5.250;2023-04-08T09:13:20;0.90;;;0.80;;
16288;SDS011;26089;43.538;5.250;2023-04-08T09:16:01;1.33;;;1.10;;
16288;SDS011;26089;43.538;5.250;2023-04-08T09:18:29;1.30;;;1.10;;
16288;SDS011;26089;43.538;5.250;2023-04-08T09:20:58;1.43;;;1.23;;
16288;SDS011;26089;43.538;5.250;2023-04-08T09:23:36;1.53;;;1.20;;
16288;SDS011;26089;43.538;5.250;2023-04-08T09:26:08;1.47;;;1.07;;
16288;SDS011;26089;43.538;5.250;2023-04-08T09:28:36;1.20;;;1.10;;
16288;SDS011;26089;43.538;5.250;2023-04-08T09:31:09;1.87;;;1.30;;
16288;SDS011;26089;43.538;5.250;2023-04-08T09:33:44;4.00;;;1.30;;
16288;SDS011;26089;43.538;5.250;2023-04-08T09:36:12;3.57;;;1.20;;
16288;SDS011;26089;43.538;5.250;2023-04-08T09:38:41;1.70;;;1.23;;
16288;SDS011;26089;43.538;5.250;2023-04-08T09:41:08;1.60;;;1.50;;
16288;SDS011;26089;43.538;5.250;2023-04-08T09:43:41;2.90;;;1.40;;
16288;SDS011;26089;43.538;5.250;2023-04-08T09:46:13;2.77;;;1.37;;
16288;SDS011;26089;43.538;5.250;2023-04-08T09:48:42;1.40;;;1.30;;
16288;SDS011;26089;43.538;5.250;2023-04-08T09:51:15;1.27;;;1.20;;
16288;SDS011;26089;43.538;5.250;2023-04-08T09:53:46;3.83;;;1.20;;
16288;SDS011;26089;43.538;5.250;2023-04-08T09:56:15;2.10;;;1.10;;
16288;SDS011;26089;43.538;5.250;2023-04-08T09:58:48;2.37;;;1.23;;
16288;SDS011;26089;43.538;5.250;2023-04-08T10:01:21;1.37;;;1.13;;
16288;SDS011;26089;43.538;5.250;2023-04-08T10:03:54;3.57;;;1.40;;
16288;SDS011;26089;43.538;5.250;2023-04-08T10:06:25;2.03;;;1.17;;
16288;SDS011;26089;43.538;5.250;2023-04-08T10:08:56;2.10;;;1.07;;
16288;SDS011;26089;43.538;5.250;2023-04-08T10:11:24;3.03;;;1.20;;
16288;SDS011;26089;43.538;5.250;2023-04-08T10:13:52;1.70;;;1.20;;
16288;SDS011;26089;43.538;5.250;2023-04-08T10:16:20;1.10;;;1.00;;
16288;SDS011;26089;43.538;5.250;2023-04-08T10:18:50;1.63;;;1.23;;
16288;SDS011;26089;43.538;5.250;2023-04-08T10:21:33;1.23;;;1.03;;
16288;SDS011;26089;43.538;5.250;2023-04-08T10:24:02;2.67;;;1.60;;
16288;SDS011;26089;43.538;5.250;2023-04-08T10:26:33;1.40;;;1.20;;
16288;SDS011;26089;43.538;5.250;2023-04-08T10:31:57;1.63;;;1.40;;
16288;SDS011;26089;43.538;5.250;2023-04-08T10:34:25;2.43;;;1.40;;
16288;SDS011;26089;43.538;5.250;2023-04-08T10:36:53;2.97;;;1.60;;
16288;SDS011;26089;43.538;5.250;2023-04-08T10:39:23;4.33;;;1.30;;
16288;SDS011;26089;43.538;5.250;2023-04-08T10:41:51;1.93;;;1.37;;
16288;SDS011;26089;43.538;5.250;2023-04-08T10:44:18;1.85;;;1.30;;
16288;SDS011;26089;43.538;5.250;2023-04-08T10:46:46;1.20;;;1.10;;
16288;SDS011;26089;43.538;5.250;2023-04-08T10:49:14;1.37;;;1.27;;
16288;SDS011;26089;43.538;5.250;2023-04-08T10:51:42;3.90;;;1.40;;
16288;SDS011;26089;43.538;5.250;2023-04-08T10:54:10;1.40;;;1.20;;
16288;SDS011;26089;43.538;5.250;2023-04-08T10:56:46;1.27;;;1.10;;
16288;SDS011;26089;43.538;5.250;2023-04-08T10:59:14;2.00;;;1.40;;
16288;SDS011;26089;43.538;5.250;2023-04-08T11:01:43;1.33;;;1.20;;
16288;SDS011;26089;43.538;5.250;2023-04-08T11:04:12;2.05;;;1.50;;
16288;SDS011;26089;43.538;5.250;2023-04-08T11:06:40;1.40;;;1.30;;
16288;SDS011;26089;43.538;5.250;2023-04-08T11:09:08;1.30;;;1.20;;
16288;SDS011;26089;43.538;5.250;2023-04-08T11:11:36;1.15;;;1.13;;
16288;SDS011;26089;43.538;5.250;2023-04-08T11:14:04;1.83;;;1.60;;
16288;SDS011;26089;43.538;5.250;2023-04-08T11:16:32;1.50;;;1.40;;
16288;SDS011;26089;43.538;5.250;2023-04-08T11:19:01;1.17;;;1.10;;
16288;SDS011;26089;43.538;5.250;2023-04-08T11:21:29;1.20;;;1.20;;
16288;SDS011;26089;43.538;5.250;2023-04-08T11:23:57;2.05;;;1.23;;
16288;SDS011;26089;43.538;5.250;2023-04-08T11:26:24;1.73;;;1.38;;
16288;SDS011;26089;43.538;5.250;2023-04-08T11:28:52;2.72;;;1.13;;
16288;SDS011;26089;43.538;5.250;2023-04-08T11:31:21;1.73;;;1.25;;
16288;SDS011;26089;43.538;5.250;2023-04-08T11:33:48;1.20;;;1.10;;
16288;SDS011;26089;43.538;5.250;2023-04-08T11:36:18;1.38;;;1.13;;
16288;SDS011;26089;43.538;5.250;2023-04-08T11:38:46;1.73;;;1.17;;
16288;SDS011;26089;43.538;5.250;2023-04-08T11:41:13;1.70;;;1.40;;
16288;SDS011;26089;43.538;5.250;2023-04-08T11:43:51;3.35;;;1.15;;
16288;SDS011;26089;43.538;5.250;2023-04-08T11:46:19;1.45;;;1.35;;
16288;SDS011;26089;43.538;5.250;2023-04-08T11:49:00;2.88;;;1.17;;
16288;SDS011;26089;43.538;5.250;2023-04-08T11:51:31;1.15;;;1.05;;
16288;SDS011;26089;43.538;5.250;2023-04-08T11:53:59;1.30;;;1.20;;
16288;SDS011;26089;43.538;5.250;2023-04-08T11:56:30;3.47;;;1.30;;
16288;SDS011;26089;43.538;5.250;2023-04-08T11:59:09;1.67;;;1.30;;
16288;SDS011;26089;43.538;5.250;2023-04-08T12:01:36;1.40;;;1.30;;
16288;SDS011;26089;43.538;5.250;2023-04-08T12:04:04;1.35;;;1.30;;
16288;SDS011;26089;43.538;5.250;2023-04-08T12:06:34;1.52;;;1.25;;
16288;SDS011;26089;43.538;5.250;2023-04-08T12:09:01;2.50;;;1.30;;
16288;SDS011;26089;43.538;5.250;2023-04-08T12:11:28;2.40;;;1.00;;
16288;SDS011;26089;43.538;5.250;2023-04-08T12:13:55;2.58;;;1.30;;
16288;SDS011;26089;43.538;5.250;2023-04-08T12:16:22;1.42;;;1.33;;
16288;SDS011;26089;43.538;5.250;2023-04-08T12:18:49;1.90;;;1.10;;
16288;SDS011;26089;43.538;5.250;2023-04-08T12:21:17;2.55;;;1.20;;
16288;SDS011;26089;43.538;5.250;2023-04-08T12:23:44;1.30;;;1.00;;
16288;SDS011;26089;43.538;5.250;2023-04-08T12:26:11;2.35;;;1.10;;
16288;SDS011;26089;43.538;5.250;2023-04-08T12:28:38;2.22;;;1.17;;
16288;SDS011;26089;43.538;5.250;2023-04-08T12:31:05;1.55;;;1.20;;
16288;SDS011;26089;43.538;5.250;2023-04-08T12:33:32;1.67;;;1.08;;
16288;SDS011;26089;43.538;5.250;2023-04-08T12:35:59;1.60;;;1.25;;
16288;SDS011;26089;43.538;5.250;2023-04-08T12:38:28;1.48;;;1.10;;
16288;SDS011;26089;43.538;5.250;2023-04-08T12:40:55;2.65;;;1.17;;
16288;SDS011;26089;43.538;5.250;2023-04-08T12:43:22;0.90;;;0.90;;
16288;SDS011;26089;43.538;5.250;2023-04-08T12:45:49;1.17;;;1.17;;
16288;SDS011;26089;43.538;5.250;2023-04-08T12:48:16;1.20;;;1.10;;
16288;SDS011;26089;43.538;5.250;2023-04-08T12:50:43;1.30;;;1.05;;
16288;SDS011;26089;43.538;5.250;2023-04-08T12:53:10;0.80;;;0.80;;
16288;SDS011;26089;43.538;5.250;2023-04-08T12:55:39;1.15;;;1.10;;
16288;SDS011;26089;43.538;5.250;2023-04-08T12:58:06;1.48;;;0.90;;
16288;SDS011;26089;43.538;5.250;2023-04-08T13:00:33;0.95;;;0.95;;
16288;SDS011;26089;43.538;5.250;2023-04-08T13:03:02;1.15;;;1.08;;
16288;SDS011;26089;43.538;5.250;2023-04-08T13:05:30;2.85;;;1.30;;
16288;SDS011;26089;43.538;5.250;2023-04-08T13:07:57;2.55;;;1.20;;
16288;SDS011;26089;43.538;5.250;2023-04-08T13:10:24;0.90;;;0.88;;
16288;SDS011;26089;43.538;5.250;2023-04-08T13:12:52;1.67;;;1.00;;
16288;SDS011;26089;43.538;5.250;2023-04-08T13:15:19;2.13;;;0.88;;
16288;SDS011;26089;43.538;5.250;2023-04-08T13:17:46;1.42;;;1.00;;
16288;SDS011;26089;43.538;5.250;2023-04-08T13:20:13;1.02;;;1.02;;
16288;SDS011;26089;43.538;5.250;2023-04-08T13:22:40;0.77;;;0.60;;
16288;SDS011;26089;43.538;5.250;2023-04-08T13:25:07;1.00;;;1.00;;
16288;SDS011;26089;43.538;5.250;2023-04-08T13:27:35;2.30;;;0.95;;
16288;SDS011;26089;43.538;5.250;2023-04-08T13:30:03;1.13;;;1.02;;
16288;SDS011;26089;43.538;5.250;2023-04-08T13:32:31;1.95;;;1.00;;
16288;SDS011;26089;43.538;5.250;2023-04-08T13:34:58;1.77;;;1.05;;
16288;SDS011;26089;43.538;5.250;2023-04-08T13:37:25;0.93;;;0.93;;
16288;SDS011;26089;43.538;5.250;2023-04-08T13:39:52;1.25;;;1.10;;
16288;SDS011;26089;43.538;5.250;2023-04-08T13:42:19;1.27;;;0.90;;
16288;SDS011;26089;43.538;5.250;2023-04-08T13:44:46;1.55;;;1.10;;
16288;SDS011;26089;43.538;5.250;2023-04-08T13:47:15;4.38;;;1.00;;
16288;SDS011;26089;43.538;5.250;2023-04-08T13:49:41;0.73;;;0.73;;
16288;SDS011;26089;43.538;5.250;2023-04-08T13:52:08;0.90;;;0.90;;
16288;SDS011;26089;43.538;5.250;2023-04-08T13:54:36;1.30;;;0.97;;
16288;SDS011;26089;43.538;5.250;2023-04-08T13:57:03;0.97;;;0.97;;
16288;SDS011;26089;43.538;5.250;2023-04-08T13:59:30;0.90;;;0.90;;
16288;SDS011;26089;43.538;5.250;2023-04-08T14:01:57;1.30;;;1.07;;
16288;SDS011;26089;43.538;5.250;2023-04-08T14:04:25;1.00;;;1.00;;
16288;SDS011;26089;43.538;5.250;2023-04-08T14:06:52;2.37;;;1.10;;
16288;SDS011;26089;43.538;5.250;2023-04-08T14:09:21;2.33;;;1.20;;
16288;SDS011;26089;43.538;5.250;2023-04-08T14:11:48;2.27;;;1.10;;
16288;SDS011;26089;43.538;5.250;2023-04-08T14:14:15;1.80;;;0.80;;
16288;SDS011;26089;43.538;5.250;2023-04-08T14:16:42;2.17;;;1.03;;
16288;SDS011;26089;43.538;5.250;2023-04-08T14:19:09;1.40;;;1.30;;
16288;SDS011;26089;43.538;5.250;2023-04-08T14:21:38;2.00;;;1.30;;
16288;SDS011;26089;43.538;5.250;2023-04-08T14:24:05;2.30;;;1.40;;
16288;SDS011;26089;43.538;5.250;2023-04-08T14:26:31;1.37;;;1.27;;
16288;SDS011;26089;43.538;5.250;2023-04-08T14:29:00;1.87;;;1.53;;
16288;SDS011;26089;43.538;5.250;2023-04-08T14:31:28;2.40;;;1.80;;
16288;SDS011;26089;43.538;5.250;2023-04-08T14:33:56;2.07;;;1.30;;
16288;SDS011;26089;43.538;5.250;2023-04-08T14:36:23;2.60;;;1.40;;
16288;SDS011;26089;43.538;5.250;2023-04-08T14:38:53;3.13;;;1.60;;
16288;SDS011;26089;43.538;5.250;2023-04-08T14:41:20;2.63;;;1.90;;
16288;SDS011;26089;43.538;5.250;2023-04-08T14:43:50;2.37;;;1.70;;
16288;SDS011;26089;43.538;5.250;2023-04-08T14:46:17;1.67;;;1.57;;
16288;SDS011;26089;43.538;5.250;2023-04-08T14:48:44;4.20;;;1.70;;
16288;SDS011;26089;43.538;5.250;2023-04-08T14:51:11;2.83;;;1.90;;
16288;SDS011;26089;43.538;5.250;2023-04-08T14:53:38;4.60;;;2.30;;
16288;SDS011;26089;43.538;5.250;2023-04-08T14:56:07;4.23;;;1.73;;
16288;SDS011;26089;43.538;5.250;2023-04-08T14:58:35;3.50;;;2.00;;